Time;durP1;ratioP1;P1;durP2;ratioP2;P2;SDS_P1;SDS_P2;PMS_P1;PMS_P2;Temp;Humidity;BMP_temperature;BMP_pressure;BME280_temperature;BME280_humidity;BME280_pressure;Samples;Min_cycle;Max_cycle;Signal;HPM_P1;HPM_P2
2024/02/25 00:01:14;;;;;;;2.53;0.70;;;;;;;;;;5035690;28;21110;-71
2024/02/25 00:03:39;;;;;;;1.27;0.87;;;;;;;;;;5036767;28;20182;-71
2024/02/25 00:06:04;;;;;;;2.37;1.13;;;;;;;;;;5042367;28;20210;-72
2024/02/25 00:08:29;;;;;;;1.67;1.00;;;;;;;;;;5045115;28;20212;-71
2024/02/25 00:10:55;;;;;;;1.50;0.83;;;;;;;;;;5043073;28;20184;-71
2024/02/25 00:13:20;;;;;;;1.83;0.87;;;;;;;;;;5048765;28;20252;-72
2024/02/25 00:15:46;;;;;;;1.70;1.00;;;;;;;;;;5043162;28;20645;-71
2024/02/25 00:18:11;;;;;;;3.93;0.93;;;;;;;;;;5047009;28;20186;-71
2024/02/25 00:20:36;;;;;;;1.80;1.00;;;;;;;;;;5039285;28;20179;-71
2024/02/25 00:23:01;;;;;;;2.00;1.00;;;;;;;;;;5043606;28;20185;-71
2024/02/25 00:25:26;;;;;;;1.30;0.93;;;;;;;;;;5042931;28;20265;-71
2024/02/25 00:27:52;;;;;;;6.23;2.10;;;;;;;;;;5044858;28;20277;-71
2024/02/25 00:30:17;;;;;;;3.50;1.20;;;;;;;;;;5045475;28;20384;-72
2024/02/25 00:32:42;;;;;;;1.37;0.87;;;;;;;;;;5049582;28;20205;-71
2024/02/25 00:35:07;;;;;;;3.83;1.00;;;;;;;;;;5034105;28;20182;-71
2024/02/25 00:37:33;;;;;;;1.90;1.07;;;;;;;;;;5026756;28;20211;-70
2024/02/25 00:39:58;;;;;;;3.97;1.27;;;;;;;;;;5029187;28;20182;-69
2024/02/25 00:42:23;;;;;;;2.97;0.90;;;;;;;;;;5026518;28;20580;-72
2024/02/25 00:44:49;;;;;;;4.10;1.10;;;;;;;;;;5032780;28;20188;-71
2024/02/25 00:47:14;;;;;;;2.67;0.97;;;;;;;;;;5031627;28;20677;-72
2024/02/25 00:49:42;;;;;;;2.63;1.43;;;;;;;;;;5025596;28;20183;-71
2024/02/25 00:52:07;;;;;;;4.00;1.27;;;;;;;;;;5028277;28;20925;-71
2024/02/25 00:54:33;;;;;;;2.90;0.90;;;;;;;;;;5025134;28;22355;-70
2024/02/25 00:56:58;;;;;;;3.03;1.10;;;;;;;;;;5042404;28;20205;-71
2024/02/25 00:59:23;;;;;;;3.00;1.50;;;;;;;;;;5052186;28;20181;-71
2024/02/25 01:01:50;;;;;;;2.00;1.30;;;;;;;;;;5047570;28;20234;-72
2024/02/25 01:04:18;;;;;;;1.67;1.10;;;;;;;;;;5041931;28;20205;-71
2024/02/25 01:06:43;;;;;;;2.30;1.10;;;;;;;;;;5043190;28;20209;-71
2024/02/25 01:09:10;;;;;;;1.43;0.80;;;;;;;;;;5053097;28;20633;-71
2024/02/25 01:11:36;;;;;;;3.13;0.97;;;;;;;;;;5045322;28;20224;-71
2024/02/25 01:14:01;;;;;;;3.07;0.90;;;;;;;;;;5050430;28;20204;-71
2024/02/25 01:16:26;;;;;;;1.70;1.00;;;;;;;;;;5048335;28;20549;-71
2024/02/25 01:18:51;;;;;;;1.93;0.93;;;;;;;;;;5050064;28;20641;-71
2024/02/25 01:21:17;;;;;;;1.40;1.30;;;;;;;;;;5044700;28;20194;-70
2024/02/25 01:23:42;;;;;;;2.20;1.03;;;;;;;;;;5059982;28;20186;-70
2024/02/25 01:26:07;;;;;;;1.77;0.63;;;;;;;;;;5053133;28;20278;-70
2024/02/25 01:28:33;;;;;;;1.10;0.80;;;;;;;;;;5045204;28;20570;-69
2024/02/25 01:30:58;;;;;;;1.80;1.00;;;;;;;;;;5043278;28;20170;-70
2024/02/25 01:33:23;;;;;;;2.00;1.17;;;;;;;;;;5048634;28;20216;-71
2024/02/25 01:35:49;;;;;;;1.83;1.10;;;;;;;;;;5050017;28;20185;-69
2024/02/25 01:38:15;;;;;;;1.70;1.23;;;;;;;;;;5046223;28;20173;-70
2024/02/25 01:40:40;;;;;;;1.10;1.00;;;;;;;;;;5039316;28;20178;-70
2024/02/25 01:43:16;;;;;;;1.30;1.20;;;;;;;;;;5050830;28;20646;-70
2024/02/25 01:45:42;;;;;;;2.43;1.40;;;;;;;;;;5042403;28;20177;-69
2024/02/25 01:48:08;;;;;;;1.20;1.10;;;;;;;;;;5048385;28;20610;-70
2024/02/25 01:50:34;;;;;;;6.13;1.80;;;;;;;;;;5050814;28;20181;-70
2024/02/25 01:52:59;;;;;;;3.33;1.13;;;;;;;;;;5049498;28;20700;-70
2024/02/25 01:55:25;;;;;;;1.30;1.20;;;;;;;;;;5045025;28;20549;-70
2024/02/25 01:57:50;;;;;;;2.10;1.33;;;;;;;;;;5045305;28;20206;-70
2024/02/25 02:00:17;;;;;;;2.50;1.47;;;;;;;;;;5043859;28;20184;-71
2024/02/25 02:02:42;;;;;;;1.73;1.10;;;;;;;;;;5049977;28;20192;-71
2024/02/25 02:05:10;;;;;;;2.70;1.60;;;;;;;;;;5047196;28;20272;-71
2024/02/25 02:07:38;;;;;;;1.73;1.57;;;;;;;;;;5061588;22;20225;-69
2024/02/25 02:10:08;;;;;;;2.10;1.67;;;;;;;;;;5030267;28;20178;-70
2024/02/25 02:12:43;;;;;;;2.30;2.10;;;;;;;;;;5045115;28;20220;-68
2024/02/25 02:15:09;;;;;;;3.00;2.10;;;;;;;;;;5058540;28;20247;-69
2024/02/25 02:17:35;;;;;;;6.67;2.53;;;;;;;;;;5045651;28;20206;-70
2024/02/25 02:20:04;;;;;;;4.80;2.67;;;;;;;;;;5041805;28;20205;-70
2024/02/25 02:22:29;;;;;;;3.53;2.63;;;;;;;;;;5031752;28;20182;-68
2024/02/25 02:24:54;;;;;;;2.57;2.27;;;;;;;;;;5032798;28;20180;-69
2024/02/25 02:27:20;;;;;;;3.93;2.97;;;;;;;;;;5048267;28;20687;-69
2024/02/25 02:29:45;;;;;;;5.93;3.30;;;;;;;;;;5050438;28;20177;-70
2024/02/25 02:32:10;;;;;;;6.10;3.20;;;;;;;;;;5050034;28;20307;-70
2024/02/25 02:34:35;;;;;;;3.37;3.03;;;;;;;;;;5051241;28;20251;-69
2024/02/25 02:37:01;;;;;;;5.10;3.33;;;;;;;;;;5043783;28;20237;-70
2024/02/25 02:39:26;;;;;;;3.57;3.20;;;;;;;;;;5045456;28;20256;-70
2024/02/25 02:41:52;;;;;;;5.83;4.07;;;;;;;;;;5049636;28;20174;-70
2024/02/25 02:44:17;;;;;;;5.87;3.30;;;;;;;;;;5047817;28;20177;-70
2024/02/25 02:46:42;;;;;;;4.67;3.37;;;;;;;;;;5048116;28;20233;-69
2024/02/25 02:49:07;;;;;;;6.37;4.30;;;;;;;;;;5045129;28;20606;-70
2024/02/25 02:51:33;;;;;;;6.43;4.40;;;;;;;;;;5049609;28;20176;-69
2024/02/25 02:53:58;;;;;;;6.30;4.20;;;;;;;;;;5041340;28;20237;-70
2024/02/25 02:56:24;;;;;;;6.37;4.70;;;;;;;;;;5031156;28;20209;-70
2024/02/25 02:58:49;;;;;;;6.40;4.03;;;;;;;;;;5028373;28;20646;-69
2024/02/25 03:01:15;;;;;;;6.17;4.70;;;;;;;;;;5048347;28;20308;-69
2024/02/25 03:03:40;;;;;;;5.83;4.40;;;;;;;;;;5028535;28;20186;-69
2024/02/25 03:06:05;;;;;;;5.80;3.90;;;;;;;;;;5030206;28;20269;-70
2024/02/25 03:08:32;;;;;;;5.80;4.20;;;;;;;;;;5049357;28;20217;-69
2024/02/25 03:10:57;;;;;;;5.53;4.37;;;;;;;;;;5041973;28;20186;-70
2024/02/25 03:13:23;;;;;;;6.43;3.63;;;;;;;;;;5046431;28;20645;-70
2024/02/25 03:15:48;;;;;;;6.73;4.30;;;;;;;;;;5044989;28;20173;-69
2024/02/25 03:18:13;;;;;;;5.23;3.80;;;;;;;;;;5047241;28;20200;-70
2024/02/25 03:20:38;;;;;;;6.93;4.13;;;;;;;;;;5054754;28;20174;-70
2024/02/25 03:23:04;;;;;;;5.20;4.00;;;;;;;;;;5048220;28;20524;-70
2024/02/25 03:25:29;;;;;;;6.37;4.77;;;;;;;;;;5048368;28;20201;-69
2024/02/25 03:27:54;;;;;;;7.30;4.40;;;;;;;;;;5031599;28;20212;-68
2024/02/25 03:30:19;;;;;;;7.13;4.60;;;;;;;;;;5025794;28;20272;-69
2024/02/25 03:32:45;;;;;;;6.73;4.87;;;;;;;;;;5048308;28;20541;-69
2024/02/25 03:35:10;;;;;;;5.67;3.97;;;;;;;;;;5046361;28;20281;-70
2024/02/25 03:37:35;;;;;;;6.10;4.53;;;;;;;;;;5029047;28;20193;-69
2024/02/25 03:40:00;;;;;;;7.60;4.20;;;;;;;;;;5030121;28;20178;-70
2024/02/25 03:42:25;;;;;;;6.97;4.00;;;;;;;;;;5039776;28;20174;-69
2024/02/25 03:44:51;;;;;;;4.97;3.97;;;;;;;;;;5026058;28;20548;-69
2024/02/25 03:47:16;;;;;;;4.23;3.57;;;;;;;;;;5049146;28;20284;-69
2024/02/25 03:49:41;;;;;;;5.97;3.60;;;;;;;;;;5047166;28;20182;-69
2024/02/25 03:52:06;;;;;;;5.10;4.03;;;;;;;;;;5048065;28;21606;-68
2024/02/25 03:54:32;;;;;;;4.30;3.47;;;;;;;;;;5046485;28;20205;-69
2024/02/25 03:56:57;;;;;;;5.87;4.13;;;;;;;;;;5045209;28;20578;-67
2024/02/25 03:59:22;;;;;;;6.83;4.23;;;;;;;;;;5043459;28;20656;-69
2024/02/25 04:01:48;;;;;;;5.47;3.73;;;;;;;;;;5044033;28;20212;-69
2024/02/25 04:04:14;;;;;;;5.13;3.70;;;;;;;;;;5045451;28;20182;-70
2024/02/25 04:06:39;;;;;;;5.10;3.93;;;;;;;;;;5050103;28;20220;-70
2024/02/25 04:09:04;;;;;;;4.63;3.50;;;;;;;;;;5031256;28;20185;-70
2024/02/25 04:11:30;;;;;;;4.80;3.90;;;;;;;;;;5048853;28;20181;-70
2024/02/25 04:13:55;;;;;;;7.40;4.80;;;;;;;;;;5046378;28;20201;-69
2024/02/25 04:16:21;;;;;;;6.07;4.53;;;;;;;;;;5043625;28;20669;-70
2024/02/25 04:18:47;;;;;;;5.87;4.50;;;;;;;;;;5031757;28;20188;-70
2024/02/25 04:21:12;;;;;;;7.23;5.80;;;;;;;;;;5046649;28;20182;-70
2024/02/25 04:23:37;;;;;;;6.00;4.83;;;;;;;;;;5049396;28;20177;-69
2024/02/25 04:26:02;;;;;;;5.97;4.80;;;;;;;;;;5049300;28;20571;-70
2024/02/25 04:28:28;;;;;;;7.33;4.90;;;;;;;;;;5051342;28;20188;-69
2024/02/25 04:30:53;;;;;;;6.97;4.23;;;;;;;;;;5027950;28;20194;-69
2024/02/25 04:33:18;;;;;;;6.37;4.60;;;;;;;;;;5048949;28;20236;-70
2024/02/25 04:35:43;;;;;;;6.87;5.00;;;;;;;;;;5048843;28;20180;-70
2024/02/25 04:38:11;;;;;;;7.17;4.90;;;;;;;;;;5030621;28;20250;-70
2024/02/25 04:40:37;;;;;;;6.30;4.43;;;;;;;;;;5049903;28;20688;-70
2024/02/25 04:43:02;;;;;;;5.07;4.37;;;;;;;;;;5031376;28;20186;-70
2024/02/25 04:45:27;;;;;;;9.60;5.27;;;;;;;;;;5049253;28;20547;-70
2024/02/25 04:47:53;;;;;;;8.03;5.00;;;;;;;;;;5042557;28;20208;-69
2024/02/25 04:50:18;;;;;;;8.07;4.73;;;;;;;;;;5044872;28;21238;-70
2024/02/25 04:52:43;;;;;;;12.60;5.27;;;;;;;;;;5027094;28;20720;-70
2024/02/25 04:55:09;;;;;;;5.70;4.63;;;;;;;;;;5047891;28;20192;-70
2024/02/25 04:57:37;;;;;;;6.47;4.53;;;;;;;;;;5039352;28;20204;-70
2024/02/25 05:00:04;;;;;;;6.23;4.50;;;;;;;;;;5032087;28;20733;-70
2024/02/25 05:02:29;;;;;;;8.77;4.67;;;;;;;;;;5049309;28;20182;-69
2024/02/25 05:04:55;;;;;;;7.50;5.27;;;;;;;;;;5047160;28;20166;-70
2024/02/25 05:07:20;;;;;;;8.00;5.07;;;;;;;;;;5045767;28;20220;-70
2024/02/25 05:09:45;;;;;;;7.90;5.40;;;;;;;;;;5049218;28;20683;-70
2024/02/25 05:12:11;;;;;;;7.33;5.00;;;;;;;;;;5048574;28;20173;-70
2024/02/25 05:14:36;;;;;;;8.03;5.10;;;;;;;;;;5028088;28;20205;-70
2024/02/25 05:17:02;;;;;;;7.93;5.60;;;;;;;;;;5042935;28;20669;-70
2024/02/25 05:19:27;;;;;;;9.30;6.17;;;;;;;;;;5034048;28;20182;-70
2024/02/25 05:21:53;;;;;;;8.77;6.07;;;;;;;;;;5033967;28;20276;-70
2024/02/25 05:24:18;;;;;;;7.80;5.90;;;;;;;;;;5053552;28;20189;-69
2024/02/25 05:26:43;;;;;;;8.00;5.53;;;;;;;;;;5033724;28;20194;-69
2024/02/25 05:29:09;;;;;;;7.30;5.43;;;;;;;;;;5051816;28;20180;-68
2024/02/25 05:31:34;;;;;;;8.03;5.33;;;;;;;;;;5047767;28;20185;-70
2024/02/25 05:33:59;;;;;;;8.13;5.63;;;;;;;;;;5056391;28;20227;-69
2024/02/25 05:36:24;;;;;;;8.40;5.70;;;;;;;;;;5039574;28;20201;-69
2024/02/25 05:38:50;;;;;;;8.97;5.77;;;;;;;;;;5050211;28;20265;-70
2024/02/25 05:41:15;;;;;;;8.93;5.97;;;;;;;;;;5053463;28;20170;-69
2024/02/25 05:43:41;;;;;;;9.50;6.23;;;;;;;;;;5053198;28;20178;-69
2024/02/25 05:46:06;;;;;;;11.33;6.57;;;;;;;;;;5051243;28;20200;-69
2024/02/25 05:48:31;;;;;;;9.23;5.73;;;;;;;;;;5050541;28;20672;-69
2024/02/25 05:50:56;;;;;;;12.13;7.00;;;;;;;;;;5042891;28;20654;-69
2024/02/25 05:53:21;;;;;;;12.77;7.03;;;;;;;;;;5027838;28;20201;-70
2024/02/25 05:55:47;;;;;;;11.43;7.83;;;;;;;;;;5051906;28;20205;-70
2024/02/25 05:58:13;;;;;;;11.10;7.13;;;;;;;;;;5052253;28;20242;-70
2024/02/25 06:00:38;;;;;;;11.00;7.27;;;;;;;;;;5049300;28;20181;-69
2024/02/25 06:03:04;;;;;;;11.73;8.33;;;;;;;;;;5052648;28;20192;-69
2024/02/25 06:05:30;;;;;;;11.73;7.70;;;;;;;;;;5047105;28;20280;-69
2024/02/25 06:07:58;;;;;;;12.83;7.80;;;;;;;;;;5052160;28;20256;-70
2024/02/25 06:10:23;;;;;;;13.40;8.50;;;;;;;;;;5040537;28;20190;-70
2024/02/25 06:12:49;;;;;;;15.60;9.27;;;;;;;;;;5047055;28;20630;-69
2024/02/25 06:15:14;;;;;;;12.90;7.30;;;;;;;;;;5040033;28;20255;-70
2024/02/25 06:17:40;;;;;;;14.30;8.47;;;;;;;;;;5036692;28;20198;-69
2024/02/25 06:20:07;;;;;;;11.40;7.70;;;;;;;;;;5043696;28;20173;-70
2024/02/25 06:22:32;;;;;;;12.83;8.67;;;;;;;;;;5028114;28;20182;-70
2024/02/25 06:24:58;;;;;;;15.63;8.70;;;;;;;;;;5038085;28;20714;-70
2024/02/25 06:27:23;;;;;;;14.63;8.37;;;;;;;;;;5051523;28;20194;-70
2024/02/25 06:29:48;;;;;;;14.50;8.63;;;;;;;;;;5041803;28;20175;-69
2024/02/25 06:32:13;;;;;;;13.70;8.53;;;;;;;;;;5048707;28;20208;-70
2024/02/25 06:34:38;;;;;;;13.83;8.80;;;;;;;;;;5043640;28;20198;-70
2024/02/25 06:37:04;;;;;;;15.13;9.10;;;;;;;;;;5059201;28;20196;-70
2024/02/25 06:39:29;;;;;;;16.30;9.57;;;;;;;;;;5047687;28;20559;-70
2024/02/25 06:41:54;;;;;;;17.27;10.60;;;;;;;;;;5042909;28;20174;-69
2024/02/25 06:44:19;;;;;;;16.57;10.07;;;;;;;;;;5043218;28;20191;-70
2024/02/25 06:46:44;;;;;;;13.30;8.50;;;;;;;;;;5046615;28;20201;-71
2024/02/25 06:49:10;;;;;;;15.53;9.90;;;;;;;;;;5051623;28;20193;-71
2024/02/25 06:51:35;;;;;;;15.93;9.87;;;;;;;;;;5032174;28;20178;-70
2024/02/25 06:54:00;;;;;;;15.97;9.50;;;;;;;;;;5049695;28;20750;-69
2024/02/25 06:56:25;;;;;;;14.57;9.30;;;;;;;;;;5048614;28;20197;-69
2024/02/25 06:58:51;;;;;;;17.20;10.10;;;;;;;;;;5051855;28;20182;-70
2024/02/25 07:01:16;;;;;;;16.43;10.27;;;;;;;;;;5030680;28;20177;-69
2024/02/25 07:03:43;;;;;;;16.10;9.87;;;;;;;;;;5047731;28;20247;-67
2024/02/25 07:06:09;;;;;;;15.00;9.43;;;;;;;;;;5047913;28;20185;-69
2024/02/25 07:08:35;;;;;;;19.00;10.90;;;;;;;;;;5029549;28;20672;-69
2024/02/25 07:11:00;;;;;;;17.67;10.47;;;;;;;;;;5049505;28;20174;-68
2024/02/25 07:13:25;;;;;;;18.27;11.00;;;;;;;;;;5046995;28;20693;-69
2024/02/25 07:15:50;;;;;;;16.03;10.47;;;;;;;;;;5051593;28;20181;-69
2024/02/25 07:18:15;;;;;;;16.20;10.73;;;;;;;;;;5047680;28;20208;-69
2024/02/25 07:20:41;;;;;;;16.07;10.63;;;;;;;;;;5047072;28;20203;-68
2024/02/25 07:23:06;;;;;;;17.47;11.37;;;;;;;;;;5047611;28;20830;-69
2024/02/25 07:25:31;;;;;;;17.43;10.00;;;;;;;;;;5045927;28;20183;-69
2024/02/25 07:27:56;;;;;;;15.80;9.63;;;;;;;;;;5051777;28;20201;-69
2024/02/25 07:30:21;;;;;;;14.87;9.77;;;;;;;;;;5048879;28;20192;-69
2024/02/25 07:32:47;;;;;;;18.43;11.10;;;;;;;;;;5049179;28;20205;-69
2024/02/25 07:35:12;;;;;;;17.37;10.90;;;;;;;;;;5026040;28;20604;-69
2024/02/25 07:37:37;;;;;;;20.67;11.33;;;;;;;;;;5051720;28;20208;-69
2024/02/25 07:40:04;;;;;;;20.57;11.50;;;;;;;;;;5037675;28;20167;-69
2024/02/25 07:42:29;;;;;;;18.33;10.53;;;;;;;;;;5025614;28;20249;-68
2024/02/25 07:44:55;;;;;;;19.47;10.37;;;;;;;;;;5048517;28;20177;-70
2024/02/25 07:47:20;;;;;;;17.10;11.33;;;;;;;;;;5047380;28;20267;-69
2024/02/25 07:49:45;;;;;;;18.03;11.33;;;;;;;;;;5044463;28;20166;-70
2024/02/25 07:52:11;;;;;;;18.33;11.10;;;;;;;;;;5048252;28;20645;-70
2024/02/25 07:54:36;;;;;;;18.97;10.93;;;;;;;;;;5044789;28;20208;-70
2024/02/25 07:57:01;;;;;;;16.17;11.17;;;;;;;;;;5050431;28;20200;-69
2024/02/25 07:59:26;;;;;;;17.40;10.77;;;;;;;;;;5043249;28;20675;-69
2024/02/25 08:01:52;;;;;;;16.00;10.27;;;;;;;;;;5048075;28;20174;-70
2024/02/25 08:04:17;;;;;;;15.33;10.03;;;;;;;;;;5040628;28;20178;-69
2024/02/25 08:06:42;;;;;;;17.77;9.60;;;;;;;;;;5062649;22;20229;-73
2024/02/25 08:09:08;;;;;;;15.67;9.73;;;;;;;;;;5048553;28;20181;-73
2024/02/25 08:11:33;;;;;;;14.40;9.60;;;;;;;;;;5042538;28;20641;-73
2024/02/25 08:13:58;;;;;;;18.07;9.10;;;;;;;;;;5049678;28;20201;-73
2024/02/25 08:16:25;;;;;;;14.30;10.17;;;;;;;;;;5048825;28;20264;-73
2024/02/25 08:18:50;;;;;;;15.77;10.30;;;;;;;;;;5023799;28;20196;-73
2024/02/25 08:21:16;;;;;;;17.00;9.90;;;;;;;;;;5049876;28;20664;-73
2024/02/25 08:23:42;;;;;;;18.70;11.53;;;;;;;;;;5048446;28;20177;-73
2024/02/25 08:26:08;;;;;;;17.43;11.13;;;;;;;;;;5025389;28;20940;-73
2024/02/25 08:28:33;;;;;;;16.13;10.13;;;;;;;;;;5043811;28;20197;-73
2024/02/25 08:30:59;;;;;;;17.67;10.40;;;;;;;;;;5029651;28;20192;-73
2024/02/25 08:33:24;;;;;;;19.73;10.87;;;;;;;;;;5026493;28;20245;-74
2024/02/25 08:35:49;;;;;;;16.67;11.30;;;;;;;;;;5038315;28;20163;-73
2024/02/25 08:38:14;;;;;;;17.87;12.40;;;;;;;;;;5039255;28;20193;-74
2024/02/25 08:40:39;;;;;;;19.70;11.30;;;;;;;;;;5035400;28;20174;-73
2024/02/25 08:43:04;;;;;;;20.60;12.57;;;;;;;;;;5048526;28;20181;-73
2024/02/25 08:45:30;;;;;;;19.03;11.77;;;;;;;;;;5047813;28;20231;-73
2024/02/25 08:47:55;;;;;;;19.73;12.60;;;;;;;;;;5027562;28;20297;-73
2024/02/25 08:50:20;;;;;;;21.73;12.63;;;;;;;;;;5052141;28;20178;-73
2024/02/25 08:52:45;;;;;;;21.97;12.63;;;;;;;;;;5050423;28;20202;-73
2024/02/25 08:55:10;;;;;;;19.43;13.07;;;;;;;;;;5055807;28;20170;-73
2024/02/25 08:57:36;;;;;;;19.53;12.73;;;;;;;;;;5045556;28;20186;-73
2024/02/25 09:00:01;;;;;;;20.67;13.63;;;;;;;;;;5051374;28;20209;-73
2024/02/25 09:02:26;;;;;;;19.33;12.63;;;;;;;;;;5028048;28;20176;-73
2024/02/25 09:04:53;;;;;;;18.37;11.73;;;;;;;;;;5046062;28;20529;-73
2024/02/25 09:07:19;;;;;;;20.40;13.37;;;;;;;;;;5042890;28;20227;-73
2024/02/25 09:09:45;;;;;;;19.70;12.57;;;;;;;;;;5045870;28;20178;-73
2024/02/25 09:12:13;;;;;;;18.27;12.33;;;;;;;;;;5029769;28;20178;-73
2024/02/25 09:14:38;;;;;;;23.77;11.17;;;;;;;;;;5031628;28;20248;-73
2024/02/25 09:17:04;;;;;;;17.10;12.03;;;;;;;;;;5037081;28;20198;-72
2024/02/25 09:19:29;;;;;;;18.77;12.63;;;;;;;;;;5047533;28;20177;-73
2024/02/25 09:21:54;;;;;;;18.53;11.40;;;;;;;;;;5055528;28;20165;-73
2024/02/25 09:24:19;;;;;;;19.27;11.77;;;;;;;;;;5050212;28;20169;-73
2024/02/25 09:26:45;;;;;;;19.30;11.13;;;;;;;;;;5050417;28;20204;-73
2024/02/25 09:29:11;;;;;;;18.10;11.53;;;;;;;;;;5032340;28;20669;-73
2024/02/25 09:31:36;;;;;;;19.27;11.13;;;;;;;;;;5032199;28;20211;-73
2024/02/25 09:34:04;;;;;;;20.37;11.20;;;;;;;;;;5049811;28;20204;-73
2024/02/25 09:36:29;;;;;;;17.53;11.00;;;;;;;;;;5052707;28;20592;-73
2024/02/25 09:38:54;;;;;;;19.70;10.97;;;;;;;;;;5046079;28;20174;-73
2024/02/25 09:41:25;;;;;;;16.93;10.57;;;;;;;;;;5047373;28;20185;-73
2024/02/25 09:43:51;;;;;;;16.57;10.23;;;;;;;;;;5048719;28;20657;-73
2024/02/25 09:46:18;;;;;;;15.77;10.63;;;;;;;;;;5034774;28;20185;-74
2024/02/25 09:48:44;;;;;;;15.13;9.63;;;;;;;;;;5047129;28;20174;-73
2024/02/25 09:51:10;;;;;;;13.33;9.10;;;;;;;;;;5051399;28;20196;-73
2024/02/25 09:53:36;;;;;;;14.43;9.00;;;;;;;;;;5036946;28;20668;-73
2024/02/25 09:56:01;;;;;;;14.17;9.47;;;;;;;;;;5047191;28;20201;-73
2024/02/25 09:58:26;;;;;;;14.77;9.93;;;;;;;;;;5048973;28;20190;-73
2024/02/25 10:00:51;;;;;;;15.40;9.63;;;;;;;;;;5041890;28;20234;-73
2024/02/25 10:03:17;;;;;;;11.90;8.85;;;;;;;;;;5048671;28;20209;-73
2024/02/25 10:05:42;;;;;;;13.15;9.43;;;;;;;;;;5052616;28;20655;-73
2024/02/25 10:08:10;;;;;;;12.00;9.30;;;;;;;;;;5048336;28;20219;-72
2024/02/25 10:10:35;;;;;;;17.33;8.67;;;;;;;;;;5044831;28;20239;-72
2024/02/25 10:13:03;;;;;;;14.07;9.13;;;;;;;;;;5047803;28;20672;-72
2024/02/25 10:15:29;;;;;;;12.50;8.63;;;;;;;;;;5052121;28;20299;-72
2024/02/25 10:17:54;;;;;;;12.07;8.82;;;;;;;;;;5048003;28;20272;-71
2024/02/25 10:20:19;;;;;;;13.15;8.57;;;;;;;;;;5046553;28;20181;-73
2024/02/25 10:22:44;;;;;;;11.65;8.52;;;;;;;;;;5048027;28;20171;-73
2024/02/25 10:25:11;;;;;;;13.73;8.85;;;;;;;;;;5051273;28;20201;-73
2024/02/25 10:27:36;;;;;;;10.30;7.85;;;;;;;;;;5051821;28;20194;-73
2024/02/25 10:30:05;;;;;;;10.98;7.50;;;;;;;;;;5047257;28;20180;-73
2024/02/25 10:32:31;;;;;;;11.95;7.53;;;;;;;;;;5027706;28;20174;-73
2024/02/25 10:34:57;;;;;;;11.50;8.00;;;;;;;;;;5049811;28;20173;-72
2024/02/25 10:37:23;;;;;;;11.90;7.97;;;;;;;;;;5023998;28;20202;-73
2024/02/25 10:39:50;;;;;;;9.70;7.15;;;;;;;;;;5047558;28;20653;-73
2024/02/25 10:42:17;;;;;;;10.85;8.48;;;;;;;;;;5028378;28;20550;-73
2024/02/25 10:44:42;;;;;;;10.43;7.70;;;;;;;;;;5042811;28;20181;-73
2024/02/25 10:47:12;;;;;;;11.55;7.18;;;;;;;;;;5032444;28;20865;-73
2024/02/25 10:49:37;;;;;;;11.30;7.97;;;;;;;;;;5035478;28;20271;-73
2024/02/25 10:52:03;;;;;;;11.13;8.05;;;;;;;;;;5034912;28;20269;-73
2024/02/25 10:54:29;;;;;;;10.32;7.60;;;;;;;;;;5021241;28;20213;-72
2024/02/25 10:56:54;;;;;;;12.30;8.50;;;;;;;;;;5046902;28;20673;-72
2024/02/25 10:59:20;;;;;;;12.70;8.10;;;;;;;;;;5048715;28;20173;-74
2024/02/25 11:01:47;;;;;;;11.50;7.88;;;;;;;;;;5026047;28;20568;-71
2024/02/25 11:04:12;;;;;;;11.27;7.07;;;;;;;;;;5026517;28;20216;-73
2024/02/25 11:06:39;;;;;;;8.80;6.43;;;;;;;;;;5040926;28;20229;-73
2024/02/25 11:09:14;;;;;;;9.90;6.50;;;;;;;;;;5042012;28;20599;-72
2024/02/25 11:11:39;;;;;;;7.83;6.47;;;;;;;;;;5039998;28;20205;-73
2024/02/25 11:14:05;;;;;;;7.53;5.25;;;;;;;;;;5046100;28;20239;-72
2024/02/25 11:16:51;;;;;;;7.00;5.47;;;;;;;;;;5044575;28;20173;-72
2024/02/25 11:19:20;;;;;;;10.20;7.07;;;;;;;;;;5041715;28;20189;-72
2024/02/25 11:21:51;;;;;;;8.95;5.90;;;;;;;;;;5037947;28;20212;-73
2024/02/25 11:24:37;;;;;;;12.93;8.23;;;;;;;;;;5041661;28;20272;-73
2024/02/25 11:27:02;;;;;;;9.23;6.75;;;;;;;;;;5042757;28;20209;-72
2024/02/25 11:29:27;;;;;;;9.07;6.88;;;;;;;;;;5023283;28;20189;-71
2024/02/25 11:32:00;;;;;;;8.02;6.60;;;;;;;;;;5037353;28;20181;-72
2024/02/25 11:34:28;;;;;;;8.93;7.00;;;;;;;;;;5043027;28;20289;-72
2024/02/25 11:36:54;;;;;;;10.23;7.25;;;;;;;;;;5042737;28;20309;-72
2024/02/25 11:39:21;;;;;;;10.43;7.18;;;;;;;;;;5045246;28;20185;-72
2024/02/25 11:41:47;;;;;;;12.20;7.28;;;;;;;;;;5020815;28;20715;-72
2024/02/25 11:44:13;;;;;;;9.52;7.22;;;;;;;;;;5041066;28;20192;-72
2024/02/25 11:46:38;;;;;;;9.15;6.35;;;;;;;;;;5045975;28;20280;-72
2024/02/25 11:49:03;;;;;;;10.27;6.57;;;;;;;;;;5046106;28;20186;-72
2024/02/25 11:51:28;;;;;;;9.80;6.00;;;;;;;;;;5040702;28;21511;-72
2024/02/25 11:53:54;;;;;;;6.50;5.20;;;;;;;;;;5037748;28;20213;-72
2024/02/25 11:56:19;;;;;;;6.85;4.68;;;;;;;;;;5040002;28;20304;-72
2024/02/25 11:58:44;;;;;;;11.00;6.03;;;;;;;;;;5021696;28;20270;-72
2024/02/25 12:01:10;;;;;;;8.48;5.10;;;;;;;;;;5045800;28;20184;-72
2024/02/25 12:03:39;;;;;;;7.18;4.97;;;;;;;;;;5020251;28;20190;-72
2024/02/25 12:06:04;;;;;;;7.57;5.50;;;;;;;;;;5045631;28;20794;-73
2024/02/25 12:08:30;;;;;;;7.72;5.38;;;;;;;;;;5042064;28;20221;-72
2024/02/25 12:10:55;;;;;;;7.82;5.65;;;;;;;;;;5044252;28;20177;-72
2024/02/25 12:13:20;;;;;;;8.07;5.53;;;;;;;;;;5043723;28;20672;-73
2024/02/25 12:15:46;;;;;;;7.43;5.80;;;;;;;;;;5045608;28;20248;-73
2024/02/25 12:18:11;;;;;;;6.47;5.55;;;;;;;;;;5046391;28;20231;-72
2024/02/25 12:20:36;;;;;;;11.40;6.35;;;;;;;;;;5043803;28;20183;-73
2024/02/25 12:23:04;;;;;;;8.25;5.63;;;;;;;;;;5045346;28;20178;-72
2024/02/25 12:25:30;;;;;;;7.32;5.43;;;;;;;;;;5039686;28;20771;-73
2024/02/25 12:28:11;;;;;;;8.27;5.97;;;;;;;;;;5050516;28;20267;-72
2024/02/25 12:30:37;;;;;;;9.40;6.38;;;;;;;;;;5046023;28;20683;-72
2024/02/25 12:33:06;;;;;;;9.43;6.18;;;;;;;;;;5031203;28;20233;-72
2024/02/25 12:35:32;;;;;;;10.68;6.40;;;;;;;;;;5042391;28;21127;-72
2024/02/25 12:37:58;;;;;;;10.15;6.35;;;;;;;;;;5048139;28;20200;-72
2024/02/25 12:40:23;;;;;;;10.82;6.60;;;;;;;;;;5043344;28;20555;-72
2024/02/25 12:42:51;;;;;;;7.75;6.30;;;;;;;;;;5043217;28;20181;-72
2024/02/25 12:45:16;;;;;;;9.07;5.43;;;;;;;;;;5044940;28;20181;-72
2024/02/25 12:47:41;;;;;;;9.23;6.53;;;;;;;;;;5023595;28;20204;-73
2024/02/25 12:50:07;;;;;;;7.78;5.95;;;;;;;;;;5028174;28;20837;-72
2024/02/25 12:52:32;;;;;;;9.70;6.35;;;;;;;;;;5043697;28;20658;-73
2024/02/25 12:54:57;;;;;;;9.98;7.03;;;;;;;;;;5050033;28;20212;-73
2024/02/25 12:57:22;;;;;;;10.63;6.45;;;;;;;;;;5025925;28;20617;-73
2024/02/25 12:59:47;;;;;;;7.78;6.38;;;;;;;;;;5029726;28;20185;-73
2024/02/25 13:02:13;;;;;;;10.38;6.40;;;;;;;;;;5028836;28;20174;-73
2024/02/25 13:04:38;;;;;;;10.93;6.55;;;;;;;;;;5047910;28;20545;-73
2024/02/25 13:07:03;;;;;;;8.52;6.78;;;;;;;;;;5043228;28;20598;-72
2024/02/25 13:09:29;;;;;;;8.38;5.82;;;;;;;;;;5044760;28;20221;-73
2024/02/25 13:11:54;;;;;;;11.70;6.40;;;;;;;;;;5048033;28;20209;-72
2024/02/25 13:14:20;;;;;;;8.10;6.13;;;;;;;;;;5029617;28;20283;-72
2024/02/25 13:16:45;;;;;;;9.13;6.70;;;;;;;;;;5045320;28;20688;-71
2024/02/25 13:19:10;;;;;;;6.93;5.65;;;;;;;;;;5041384;28;20216;-72
2024/02/25 13:21:36;;;;;;;6.28;4.95;;;;;;;;;;5045783;28;20228;-72
2024/02/25 13:24:01;;;;;;;7.65;5.22;;;;;;;;;;5046638;28;20659;-72
2024/02/25 13:26:26;;;;;;;7.13;5.30;;;;;;;;;;5047154;28;20607;-72
2024/02/25 13:28:51;;;;;;;5.70;4.55;;;;;;;;;;5027330;28;20189;-73
2024/02/25 13:31:16;;;;;;;5.13;3.47;;;;;;;;;;5027877;28;20234;-72
2024/02/25 13:33:42;;;;;;;2.33;1.90;;;;;;;;;;5049270;28;20258;-72
2024/02/25 13:36:07;;;;;;;2.83;1.90;;;;;;;;;;5050085;28;20181;-72
2024/02/25 13:38:32;;;;;;;3.83;1.83;;;;;;;;;;5045422;28;20284;-73
2024/02/25 13:40:59;;;;;;;1.88;1.45;;;;;;;;;;5024789;28;20189;-72
2024/02/25 13:43:24;;;;;;;1.85;1.42;;;;;;;;;;5044689;28;20268;-72
2024/02/25 13:45:50;;;;;;;5.03;1.80;;;;;;;;;;5041803;28;20629;-73
2024/02/25 13:48:16;;;;;;;4.38;1.80;;;;;;;;;;5040444;28;20205;-74
2024/02/25 13:50:41;;;;;;;1.73;1.60;;;;;;;;;;5043352;28;20184;-73
2024/02/25 13:53:06;;;;;;;2.17;1.55;;;;;;;;;;5043237;28;20206;-73
2024/02/25 13:55:32;;;;;;;3.20;1.80;;;;;;;;;;5043988;28;20229;-72
2024/02/25 13:57:57;;;;;;;3.63;2.35;;;;;;;;;;5045582;28;20677;-73
2024/02/25 14:00:23;;;;;;;1.95;1.48;;;;;;;;;;5044605;28;20556;-73
2024/02/25 14:02:48;;;;;;;2.55;1.67;;;;;;;;;;5050986;28;20232;-72
2024/02/25 14:05:13;;;;;;;3.42;1.67;;;;;;;;;;5049384;28;20170;-72
2024/02/25 14:07:38;;;;;;;5.90;1.75;;;;;;;;;;5114294;22;20237;-69
2024/02/25 14:10:05;;;;;;;3.63;1.77;;;;;;;;;;5039883;28;20247;-68
2024/02/25 14:12:30;;;;;;;2.25;1.50;;;;;;;;;;5042454;28;20178;-69
2024/02/25 14:14:55;;;;;;;2.58;1.60;;;;;;;;;;5046451;28;20202;-69
2024/02/25 14:17:21;;;;;;;1.30;1.13;;;;;;;;;;5037642;28;20198;-69
2024/02/25 14:19:47;;;;;;;2.17;1.35;;;;;;;;;;5013097;28;20177;-69
2024/02/25 14:22:12;;;;;;;3.25;1.40;;;;;;;;;;5016829;28;20179;-68
2024/02/25 14:24:37;;;;;;;3.33;1.30;;;;;;;;;;5031329;28;20182;-69
2024/02/25 14:27:02;;;;;;;2.03;1.55;;;;;;;;;;5026141;28;20194;-69